createdAt,value
2023-03-26T00:00:14.987Z,97573.22
2023-03-26T00:01:16.272Z,97567.76
2023-03-26T00:02:14.876Z,97567.36
2023-03-26T00:03:16.134Z,97567.14
2023-03-26T00:04:15.022Z,97561.54
2023-03-26T00:05:14.931Z,97567.58
2023-03-26T00:06:15.867Z,97562.42
2023-03-26T00:07:15.016Z,97562.75
2023-03-26T00:08:15.940Z,97563.81
2023-03-26T00:09:15.976Z,97564.78
2023-03-26T00:10:14.993Z,97563.16
2023-03-26T00:11:15.992Z,97565.98
2023-03-26T00:12:14.991Z,97560.53
2023-03-26T00:13:15.010Z,97560.62
2023-03-26T00:14:15.041Z,97562.84
2023-03-26T00:15:15.043Z,97560.94
2023-03-26T00:16:16.906Z,97562.98
2023-03-26T00:17:15.099Z,97561.92
2023-03-26T00:18:15.110Z,97560.73
2023-03-26T00:19:15.325Z,97559.03
2023-03-26T00:20:15.169Z,97564.26
2023-03-26T00:21:16.358Z,97559.3
2023-03-26T00:22:15.197Z,97558.73
2023-03-26T00:23:15.212Z,97557.14
2023-03-26T00:24:15.579Z,97557.23
2023-03-26T00:25:15.375Z,97555.17
2023-03-26T00:26:15.778Z,97560.78
2023-03-26T00:27:15.317Z,97556.78
2023-03-26T00:28:15.280Z,97554.75
2023-03-26T00:29:15.281Z,97555.27
2023-03-26T00:30:15.801Z,97557.17
2023-03-26T00:31:15.454Z,97551.09
2023-03-26T00:32:15.348Z,97548.75
2023-03-26T00:33:15.653Z,97549.7
2023-03-26T00:34:15.393Z,97552.38
2023-03-26T00:35:15.398Z,97549.56
2023-03-26T00:36:16.053Z,97547.7
2023-03-26T00:37:15.503Z,97550.03
2023-03-26T00:38:15.561Z,97546.67
2023-03-26T00:39:15.506Z,97543.89
2023-03-26T00:40:15.481Z,97545.67
2023-03-26T00:41:17.131Z,97548.31
2023-03-26T00:42:15.547Z,97548.55
2023-03-26T00:43:15.487Z,97543.78
2023-03-26T00:44:15.506Z,97544.38
2023-03-26T00:45:15.578Z,97545.94
2023-03-26T00:46:16.107Z,97545.33
2023-03-26T00:47:15.604Z,97548.97
2023-03-26T00:48:16.235Z,97547.17
2023-03-26T00:49:15.611Z,97544.19
2023-03-26T00:50:15.725Z,97542.4
2023-03-26T00:51:16.090Z,97541.12
2023-03-26T00:52:15.663Z,97540.58
2023-03-26T00:53:16.558Z,97538.95
2023-03-26T00:54:15.774Z,97538.02
2023-03-26T00:55:15.684Z,97539.24
2023-03-26T00:56:16.164Z,97535
2023-03-26T00:57:25.717Z,97534.34
2023-03-26T00:58:19.716Z,97532.19
2023-03-26T00:59:19.626Z,97530.05
2023-03-26T01:00:27.356Z,97535.09
2023-03-26T01:01:25.645Z,97528.08
2023-03-26T01:02:24.062Z,97519.08
2023-03-26T01:03:27.456Z,97519.21
2023-03-26T01:04:29.364Z,97522.47
2023-03-26T01:05:40.207Z,97520.37
2023-03-26T01:06:30.823Z,97520.69
2023-03-26T01:07:27.463Z,97522.75
2023-03-26T01:09:31.845Z,97529.52
2023-03-26T01:10:28.766Z,97530.95
2023-03-26T01:11:30.632Z,97526
2023-03-26T01:12:30.911Z,97528.3
2023-03-26T01:13:30.529Z,97525.62
2023-03-26T01:14:29.231Z,97528.45
2023-03-26T01:15:28.755Z,97523.08
2023-03-26T01:17:30.794Z,97525
2023-03-26T01:18:31.987Z,97523.8
2023-03-26T01:20:33.823Z,97527.36
2023-03-26T01:21:31.061Z,97530.16
2023-03-26T01:22:31.352Z,97529.81
2023-03-26T01:23:39.498Z,97520.98
2023-03-26T01:24:31.320Z,97525.27
2023-03-26T01:25:35.924Z,97523.05
2023-03-26T01:28:37.998Z,97523.74
2023-03-26T01:35:58.465Z,97519.62
2023-03-26T01:37:07.857Z,97523.73
2023-03-26T01:38:07.437Z,97521.41
2023-03-26T01:42:19.388Z,97522.12
2023-03-26T01:45:23.577Z,97529.97
2023-03-26T01:46:20.725Z,97525.45
2023-03-26T01:47:20.798Z,97527.27
2023-03-26T01:48:20.323Z,97526.15
2023-03-26T01:49:20.095Z,97525.79
2023-03-26T01:50:20.362Z,97524.34
2023-03-26T01:52:23.938Z,97521.7
2023-03-26T01:53:24.686Z,97523.75
2023-03-26T01:54:27.853Z,97519.53
2023-03-26T01:55:28.705Z,97524.32
2023-03-26T01:58:42.294Z,97514.34
2023-03-26T02:03:50.749Z,97520.38
2023-03-26T02:04:54.614Z,97515.48
2023-03-26T02:05:57.121Z,97522.25
2023-03-26T02:09:02.034Z,97518.34
2023-03-26T02:10:01.114Z,97520.09
2023-03-26T02:11:00.291Z,97519.16
2023-03-26T02:11:59.354Z,97517.63
2023-03-26T02:12:58.884Z,97513.77
2023-03-26T02:13:59.080Z,97508.88
2023-03-26T02:14:59.708Z,97510.16
2023-03-26T02:16:02.801Z,97505.53
2023-03-26T02:16:59.654Z,97502.83
2023-03-26T02:17:59.610Z,97505.58
2023-03-26T02:18:59.527Z,97501.34
2023-03-26T02:19:59.507Z,97497.12
2023-03-26T02:20:59.454Z,97490.17
2023-03-26T02:21:59.513Z,97489.63
2023-03-26T02:22:59.526Z,97488.02
2023-03-26T02:23:59.729Z,97492.58
2023-03-26T02:24:59.601Z,97493.8
2023-03-26T02:25:59.644Z,97493.12
2023-03-26T02:26:59.663Z,97490.94
2023-03-26T02:27:59.642Z,97488.72
2023-03-26T02:29:00.146Z,97491.31
2023-03-26T02:29:59.682Z,97489.38
2023-03-26T02:30:59.894Z,97488.7
2023-03-26T02:31:59.718Z,97484.8
2023-03-26T02:32:59.811Z,97482.7
2023-03-26T02:33:59.716Z,97482.42
2023-03-26T02:34:59.777Z,97478.59
2023-03-26T02:35:59.906Z,97481.44
2023-03-26T02:37:00.169Z,97484.23
2023-03-26T02:37:59.789Z,97480.47
2023-03-26T02:38:59.873Z,97485.68
2023-03-26T02:40:00.255Z,97480.48
2023-03-26T02:40:59.860Z,97486.75
2023-03-26T02:41:59.992Z,97487.95
2023-03-26T02:42:59.857Z,97486.98
2023-03-26T02:44:00.010Z,97484.94
2023-03-26T02:44:59.965Z,97485.78
2023-03-26T02:46:00.079Z,97490.66
2023-03-26T02:47:00.332Z,97486.87
2023-03-26T02:48:00.039Z,97483.95
2023-03-26T02:49:00.026Z,97485.56
2023-03-26T02:50:00.047Z,97480.55
2023-03-26T02:51:00.802Z,97480.38
2023-03-26T02:52:00.503Z,97482.41
2023-03-26T02:53:00.038Z,97485.06
2023-03-26T02:54:00.819Z,97485.77
2023-03-26T02:55:00.062Z,97487.22
2023-03-26T02:56:00.300Z,97492.81
2023-03-26T02:57:00.943Z,97490.15
2023-03-26T02:58:00.653Z,97490.99
2023-03-26T02:59:00.654Z,97494.45
2023-03-26T03:00:00.856Z,97493.02
2023-03-26T03:01:00.817Z,97495.77
2023-03-26T03:02:00.766Z,97499.77
2023-03-26T03:03:01.089Z,97496.38
2023-03-26T03:04:01.892Z,97498.94
2023-03-26T03:05:00.712Z,97496.93
2023-03-26T03:06:00.761Z,97499.08
2023-03-26T03:07:00.828Z,97495.02
2023-03-26T03:08:00.866Z,97492.03
2023-03-26T03:09:00.884Z,97494.98
2023-03-26T03:10:00.862Z,97494.48
2023-03-26T03:12:05.847Z,97495.3
2023-03-26T03:13:05.651Z,97493.33
2023-03-26T03:14:05.757Z,97494.06
2023-03-26T03:15:06.244Z,97496.78
2023-03-26T03:16:06.105Z,97496.28
2023-03-26T03:17:05.936Z,97490.47
2023-03-26T03:18:05.967Z,97493.7
2023-03-26T03:19:05.740Z,97488.38
2023-03-26T03:20:06.728Z,97490.93
2023-03-26T03:21:05.917Z,97487.53
2023-03-26T03:22:05.820Z,97487.75
2023-03-26T03:23:05.814Z,97484.94
2023-03-26T03:24:06.137Z,97483.69
2023-03-26T03:25:06.263Z,97487.09
2023-03-26T03:26:10.045Z,97485.06
2023-03-26T03:27:06.702Z,97486.5
2023-03-26T03:28:06.739Z,97486.06
2023-03-26T03:29:06.734Z,97482.94
2023-03-26T03:30:07.949Z,97481.95
2023-03-26T03:31:06.770Z,97478.66
2023-03-26T03:32:06.804Z,97481.47
2023-03-26T03:33:06.824Z,97481.36
2023-03-26T03:34:06.845Z,97483.03
2023-03-26T03:35:07.251Z,97479.39
2023-03-26T03:36:10.197Z,97478.63
2023-03-26T03:37:11.604Z,97479.27
2023-03-26T03:38:11.777Z,97484.75
2023-03-26T03:39:11.709Z,97480.44
2023-03-26T03:40:12.077Z,97483.23
2023-03-26T03:41:11.697Z,97483.56
2023-03-26T03:42:11.785Z,97478.67
2023-03-26T03:43:11.724Z,97476.72
2023-03-26T03:44:11.754Z,97477.2
2023-03-26T03:45:12.071Z,97477.97
2023-03-26T03:46:11.881Z,97476.81
2023-03-26T03:47:11.738Z,97476.16
2023-03-26T03:48:11.780Z,97477.98
2023-03-26T03:49:11.791Z,97476.66
2023-03-26T03:50:11.867Z,97479.48
2023-03-26T03:51:11.881Z,97478.11
2023-03-26T03:52:11.815Z,97478.86
2023-03-26T03:53:11.872Z,97478.88
2023-03-26T03:54:11.865Z,97473.59
2023-03-26T03:55:11.922Z,97479.48
2023-03-26T03:56:11.989Z,97475.58
2023-03-26T03:57:12.028Z,97471.75
2023-03-26T03:58:11.905Z,97472.12
2023-03-26T03:59:11.956Z,97471.23
2023-03-26T04:00:12.443Z,97471.83
2023-03-26T04:01:12.309Z,97471.17
2023-03-26T04:02:12.064Z,97470.59
2023-03-26T04:03:12.136Z,97467.61
2023-03-26T04:04:12.351Z,97469.17
2023-03-26T04:05:12.474Z,97471.92
2023-03-26T04:06:13.012Z,97474.38
2023-03-26T04:07:12.061Z,97473.47
2023-03-26T04:08:12.107Z,97473.06
2023-03-26T04:09:12.108Z,97472.94
2023-03-26T04:10:14.567Z,97472.64
2023-03-26T04:11:12.896Z,97470.2
2023-03-26T04:12:12.219Z,97469.01
2023-03-26T04:13:12.982Z,97470.2
2023-03-26T04:14:12.251Z,97470.64
2023-03-26T04:15:12.173Z,97474.8
2023-03-26T04:16:12.285Z,97476.45
2023-03-26T04:17:12.336Z,97474.47
2023-03-26T04:18:12.249Z,97473.31
2023-03-26T04:19:12.225Z,97471.66
2023-03-26T04:20:12.907Z,97469.21
2023-03-26T04:21:12.493Z,97474.05
2023-03-26T04:22:12.330Z,97467.84
2023-03-26T04:23:13.313Z,97471.23
2023-03-26T04:24:12.293Z,97474.79
2023-03-26T04:25:12.715Z,97472.27
2023-03-26T04:26:15.339Z,97474.73
2023-03-26T04:27:16.915Z,97473.72
2023-03-26T04:28:22.164Z,97479.7
2023-03-26T04:29:14.041Z,97471.96
2023-03-26T04:30:18.607Z,97473.02
2023-03-26T04:31:19.279Z,97472.66
2023-03-26T04:32:20.107Z,97471.93
2023-03-26T04:33:16.820Z,97465.55
2023-03-26T04:34:23.326Z,97469.31
2023-03-26T04:35:20.226Z,97470.06
2023-03-26T04:36:22.684Z,97469.83
2023-03-26T04:37:25.473Z,97470.84
2023-03-26T04:38:22.508Z,97472.36
2023-03-26T04:39:22.337Z,97471.23
2023-03-26T04:40:22.505Z,97469.53
2023-03-26T04:41:22.143Z,97469.05
2023-03-26T04:42:22.133Z,97471.85
2023-03-26T04:43:22.176Z,97467.55
2023-03-26T04:44:22.266Z,97468.73
2023-03-26T04:45:22.734Z,97466.99
2023-03-26T04:46:22.386Z,97466.3
2023-03-26T04:47:22.410Z,97465.41
2023-03-26T04:48:22.446Z,97462.48
2023-03-26T04:49:22.278Z,97466.3
2023-03-26T04:50:22.297Z,97460.58
2023-03-26T04:51:25.649Z,97466.25
2023-03-26T04:52:22.687Z,97461.2
2023-03-26T04:53:22.804Z,97462.23
2023-03-26T04:54:22.640Z,97464.77
2023-03-26T04:55:31.076Z,97462.81
2023-03-26T04:58:28.594Z,97457.42
2023-03-26T04:59:30.275Z,97459.07
2023-03-26T05:00:28.882Z,97453.47
2023-03-26T05:01:29.062Z,97454
2023-03-26T05:02:28.673Z,97457.3
2023-03-26T05:03:28.661Z,97452.23
2023-03-26T05:04:28.940Z,97453.66
2023-03-26T05:05:29.029Z,97455.55
2023-03-26T05:06:28.774Z,97449.72
2023-03-26T05:07:28.688Z,97452.83
2023-03-26T05:08:28.703Z,97452.47
2023-03-26T05:09:28.731Z,97451.17
2023-03-26T05:10:28.896Z,97454.81
2023-03-26T05:11:28.779Z,97455.91
2023-03-26T05:12:29.102Z,97455.02
2023-03-26T05:13:28.768Z,97455.5
2023-03-26T05:14:28.812Z,97454.82
2023-03-26T05:15:28.821Z,97452.03
2023-03-26T05:16:29.396Z,97454.36
2023-03-26T05:17:28.946Z,97455.91
2023-03-26T05:18:28.969Z,97450.88
2023-03-26T05:19:28.830Z,97449.95
2023-03-26T05:20:30.264Z,97450.53
2023-03-26T05:21:28.872Z,97453.09
2023-03-26T05:22:28.928Z,97448.48
2023-03-26T05:23:28.956Z,97448.3
2023-03-26T05:24:28.918Z,97447.56
2023-03-26T05:25:28.985Z,97448.77
2023-03-26T05:26:28.992Z,97446.09
2023-03-26T05:27:28.988Z,97451.28
2023-03-26T05:28:29.036Z,97452.95
2023-03-26T05:29:28.984Z,97453.77
2023-03-26T05:30:29.004Z,97456.02
2023-03-26T05:31:29.020Z,97454.02
2023-03-26T05:32:30.534Z,97454.11
2023-03-26T05:33:29.253Z,97455.66
2023-03-26T05:34:29.055Z,97452.59
2023-03-26T05:35:29.081Z,97456.92
2023-03-26T05:36:29.103Z,97451.33
2023-03-26T05:37:29.440Z,97453.89
2023-03-26T05:38:29.699Z,97460.34
2023-03-26T05:39:29.165Z,97459.88
2023-03-26T05:40:29.128Z,97457.56
2023-03-26T05:41:29.166Z,97455.65
2023-03-26T05:42:29.156Z,97455.48
2023-03-26T05:43:29.348Z,97451.89
2023-03-26T05:44:29.524Z,97459.39
2023-03-26T05:45:29.207Z,97457.84
2023-03-26T05:46:29.242Z,97456.91
2023-03-26T05:47:29.320Z,97454.61
2023-03-26T05:48:29.283Z,97456.12
2023-03-26T05:49:29.368Z,97457.47
2023-03-26T05:50:29.317Z,97454.78
2023-03-26T05:51:29.288Z,97452.89
2023-03-26T05:52:29.318Z,97456.92
2023-03-26T05:53:29.464Z,97451.21
2023-03-26T05:54:29.475Z,97451.96
2023-03-26T05:55:29.352Z,97453.38
2023-03-26T05:56:29.362Z,97456.03
2023-03-26T05:57:30.413Z,97453.67
2023-03-26T05:58:30.796Z,97455.95
2023-03-26T05:59:29.405Z,97452.58
2023-03-26T06:00:29.420Z,97454.39
2023-03-26T06:01:29.423Z,97457.02
2023-03-26T06:02:29.481Z,97456.55
2023-03-26T06:03:29.547Z,97459.42
2023-03-26T06:04:29.562Z,97462.41
2023-03-26T06:05:31.683Z,97459.57
2023-03-26T06:06:31.143Z,97462.26
2023-03-26T06:07:29.855Z,97460.92
2023-03-26T06:08:29.891Z,97461.78
2023-03-26T06:09:29.619Z,97459.11
2023-03-26T06:10:30.219Z,97458.27
2023-03-26T06:11:29.985Z,97463.47
2023-03-26T06:12:29.560Z,97457.95
2023-03-26T06:13:29.900Z,97465.15
2023-03-26T06:14:29.587Z,97462.73
2023-03-26T06:15:29.692Z,97465.34
2023-03-26T06:16:29.659Z,97462.97
2023-03-26T06:17:29.750Z,97464.9
2023-03-26T06:18:29.795Z,97467.19
2023-03-26T06:19:29.679Z,97466.15
2023-03-26T06:20:29.726Z,97468.11
2023-03-26T06:21:29.689Z,97466.98
2023-03-26T06:22:29.707Z,97464.5
2023-03-26T06:23:30.494Z,97462.17
2023-03-26T06:24:30.252Z,97465.52
2023-03-26T06:25:30.216Z,97465.55
2023-03-26T06:26:30.171Z,97462.17
2023-03-26T06:27:30.203Z,97460.77
2023-03-26T06:28:30.245Z,97465.33
2023-03-26T06:29:30.203Z,97462.74
2023-03-26T06:30:30.230Z,97464.05
2023-03-26T06:31:30.348Z,97466.94
2023-03-26T06:32:30.289Z,97470.23
2023-03-26T06:33:30.293Z,97471.97
2023-03-26T06:34:30.372Z,97469.79
2023-03-26T06:35:30.759Z,97469.14
2023-03-26T06:36:30.351Z,97467.42
2023-03-26T06:37:30.324Z,97466.19
2023-03-26T06:38:30.324Z,97463.55
2023-03-26T06:39:30.381Z,97467.28
2023-03-26T06:40:30.524Z,97471.61
2023-03-26T06:41:32.262Z,97469.23
2023-03-26T06:43:06.488Z,97466.84
2023-03-26T06:43:31.609Z,97474.01
2023-03-26T06:44:31.637Z,97475.48
2023-03-26T06:45:32.600Z,97467.71
2023-03-26T06:46:31.715Z,97467.19
2023-03-26T06:47:31.701Z,97466.3
2023-03-26T06:48:31.656Z,97466.73
2023-03-26T06:49:31.671Z,97466.64
2023-03-26T06:50:31.661Z,97464.68
2023-03-26T06:51:31.701Z,97466.88
2023-03-26T06:52:31.817Z,97464.83
2023-03-26T06:53:31.728Z,97462.06
2023-03-26T06:54:31.728Z,97462.73
2023-03-26T06:55:31.724Z,97456.3
2023-03-26T06:56:31.770Z,97457.42
2023-03-26T06:57:31.985Z,97457
2023-03-26T06:58:31.775Z,97460.28
2023-03-26T06:59:31.876Z,97461.18
2023-03-26T07:00:31.856Z,97458.78
2023-03-26T07:01:31.935Z,97461.03
2023-03-26T07:02:31.958Z,97464.03
2023-03-26T07:03:31.969Z,97463.33
2023-03-26T07:04:31.875Z,97466.33
2023-03-26T07:05:31.999Z,97466.28
2023-03-26T07:06:32.030Z,97463.94
2023-03-26T07:07:31.981Z,97464.2
2023-03-26T07:08:31.932Z,97457.02
2023-03-26T07:09:32.070Z,97457.45
2023-03-26T07:10:32.156Z,97462.77
2023-03-26T07:11:31.972Z,97459.65
2023-03-26T07:12:32.128Z,97457
2023-03-26T07:13:32.024Z,97462.11
2023-03-26T07:14:32.094Z,97455.35
2023-03-26T07:15:32.164Z,97454.31
2023-03-26T07:16:32.076Z,97455.83
2023-03-26T07:17:32.170Z,97458.41
2023-03-26T07:18:32.287Z,97460.02
2023-03-26T07:19:32.176Z,97461.61
2023-03-26T07:20:32.759Z,97454.77
2023-03-26T07:21:32.647Z,97459.47
2023-03-26T07:22:32.341Z,97459.34
2023-03-26T07:23:32.410Z,97459.02
2023-03-26T07:24:32.391Z,97459.34
2023-03-26T07:25:32.475Z,97456.02
2023-03-26T07:29:48.550Z,97460.77
2023-03-26T07:32:59.718Z,97458.6
2023-03-26T07:34:58.589Z,97463.83
2023-03-26T07:36:01.443Z,97467.52
2023-03-26T07:41:12.991Z,97465.12
2023-03-26T07:46:19.750Z,97478.53
2023-03-26T07:47:23.092Z,97480.74
2023-03-26T07:48:23.949Z,97480.45
2023-03-26T07:49:20.478Z,97485.36
2023-03-26T07:50:22.235Z,97487.97
2023-03-26T07:51:20.483Z,97489.08
2023-03-26T07:52:20.482Z,97490.22
2023-03-26T07:53:20.670Z,97492.81
2023-03-26T07:54:20.453Z,97495.79
2023-03-26T07:55:20.695Z,97496.29
2023-03-26T07:56:26.165Z,97497.97
2023-03-26T08:00:32.418Z,97501.77
2023-03-26T08:04:49.871Z,97514.73
2023-03-26T08:05:56.961Z,97515.97
2023-03-26T08:06:53.941Z,97515.94
2023-03-26T08:07:58.701Z,97517.61
2023-03-26T08:12:18.666Z,97521.5
2023-03-26T08:13:19.629Z,97521.8
2023-03-26T08:21:37.958Z,97516.11
2023-03-26T08:22:38.495Z,97515.22
2023-03-26T08:23:50.966Z,97519.39
2023-03-26T08:24:42.694Z,97516.63
2023-03-26T08:29:55.297Z,97518.88
2023-03-26T08:30:52.447Z,97517.91
2023-03-26T08:31:52.738Z,97517.49
2023-03-26T08:33:52.634Z,97517.38
2023-03-26T08:34:52.587Z,97516.64
2023-03-26T08:35:52.663Z,97514.92
2023-03-26T08:36:52.641Z,97510.99
2023-03-26T08:37:52.784Z,97514.63
2023-03-26T08:38:52.671Z,97512.45
2023-03-26T08:39:53.224Z,97511.52
2023-03-26T08:46:22.486Z,97515.31
2023-03-26T09:39:34.876Z,97524.93
2023-03-26T09:40:35.538Z,97527.69
2023-03-26T09:41:37.350Z,97521.32
2023-03-26T10:10:01.947Z,97547.91
2023-03-26T10:15:04.132Z,97546.34
2023-03-26T10:21:28.387Z,97549.48
2023-03-26T10:44:25.177Z,97556.98
2023-03-26T10:47:34.280Z,97553.16
2023-03-26T10:52:48.406Z,97550.78
2023-03-26T10:53:53.509Z,97549.73
2023-03-26T10:55:59.456Z,97549.98
2023-03-26T10:56:51.945Z,97555.24
2023-03-26T10:57:55.672Z,97553.25
2023-03-26T10:58:53.780Z,97559.91
2023-03-26T10:59:54.964Z,97552.61
2023-03-26T11:01:06.352Z,97557.39
2023-03-26T11:03:59.856Z,97562.94
2023-03-26T11:08:09.658Z,97551.95
2023-03-26T11:10:20.557Z,97556.17
2023-03-26T11:12:25.814Z,97553.59
2023-03-26T11:26:56.193Z,97527.7
2023-03-26T11:33:06.577Z,97522.89
2023-03-26T11:34:06.169Z,97525.81
2023-03-26T11:35:07.027Z,97525.25
2023-03-26T11:36:07.101Z,97526.11
2023-03-26T11:37:06.426Z,97526.78
2023-03-26T11:38:05.481Z,97526.88
2023-03-26T11:39:06.011Z,97522.91
2023-03-26T11:40:09.877Z,97524.48
2023-03-26T11:41:14.532Z,97523.17
2023-03-26T11:42:12.701Z,97526.95
2023-03-26T11:43:12.612Z,97524.97
2023-03-26T11:45:16.578Z,97523.3
2023-03-26T11:46:14.883Z,97524.39
2023-03-26T11:47:15.691Z,97527.23
2023-03-26T11:48:18.205Z,97524.31
2023-03-26T11:49:17.487Z,97521.11
2023-03-26T11:50:16.748Z,97523.66
2023-03-26T11:51:18.401Z,97527.75
2023-03-26T11:52:15.273Z,97529.33
2023-03-26T11:53:16.512Z,97526.3
2023-03-26T11:54:15.173Z,97523.86
2023-03-26T11:55:15.043Z,97528.51
2023-03-26T11:57:23.349Z,97524.96
2023-03-26T11:59:29.983Z,97522.09
2023-03-26T12:00:26.744Z,97526.33
2023-03-26T12:01:28.071Z,97525.61
2023-03-26T12:02:28.642Z,97529.28
2023-03-26T12:03:26.245Z,97527.22
2023-03-26T12:05:29.558Z,97523.88
2023-03-26T12:06:30.057Z,97522.08
2023-03-26T12:07:31.186Z,97520.16
2023-03-26T12:08:38.744Z,97521.06
2023-03-26T12:09:30.506Z,97515.77
2023-03-26T12:10:34.610Z,97523.88
2023-03-26T12:11:34.634Z,97523.22
2023-03-26T12:12:33.812Z,97524.08
2023-03-26T12:13:36.397Z,97525.19
2023-03-26T12:14:34.713Z,97528.17
2023-03-26T12:15:33.235Z,97526.58
2023-03-26T12:16:34.344Z,97526.98
2023-03-26T12:17:37.137Z,97526.73
2023-03-26T12:18:34.150Z,97532.3
2023-03-26T12:19:35.951Z,97529.16
2023-03-26T12:20:34.932Z,97527.72
2023-03-26T12:21:46.946Z,97525.97
2023-03-26T12:22:40.270Z,97523.89
2023-03-26T12:24:40.536Z,97521.27
2023-03-26T12:25:40.579Z,97518.03
2023-03-26T12:26:41.874Z,97522.78
2023-03-26T12:28:45.608Z,97525.92
2023-03-26T12:29:41.829Z,97529.39
2023-03-26T12:30:43.244Z,97532.46
2023-03-26T12:32:46.657Z,97526.22
2023-03-26T12:33:44.102Z,97527.81
2023-03-26T12:34:43.456Z,97530
2023-03-26T12:35:43.440Z,97528.19
2023-03-26T12:37:44.802Z,97533.67
2023-03-26T12:38:44.641Z,97529.86
2023-03-26T12:40:09.766Z,97524.22
2023-03-26T12:40:47.177Z,97520.94
2023-03-26T12:44:46.260Z,97519.83
2023-03-26T12:44:52.619Z,97518.45
2023-03-26T12:44:59.987Z,97513.03
2023-03-26T12:46:20.720Z,97509.66
2023-03-26T12:48:04.347Z,97509.31
2023-03-26T12:49:05.426Z,97510.52
2023-03-26T12:50:02.295Z,97508.34
2023-03-26T12:51:13.418Z,97505.39
2023-03-26T13:00:27.148Z,97503.39
2023-03-26T13:06:59.240Z,97499.41
2023-03-26T13:09:53.236Z,97499.88
2023-03-26T13:11:53.907Z,97502.49
2023-03-26T13:16:03.817Z,97504.4
2023-03-26T13:25:39.433Z,97491.53
2023-03-26T13:39:03.555Z,97495.19
2023-03-26T13:41:14.527Z,97488.83
2023-03-26T13:42:20.035Z,97493.46
2023-03-26T13:46:26.209Z,97502.86
2023-03-26T13:47:20.982Z,97501.66
2023-03-26T13:48:20.959Z,97502.04
2023-03-26T13:50:26.636Z,97500.53
2023-03-26T13:51:23.595Z,97502.33
2023-03-26T13:52:28.471Z,97507.68
2023-03-26T13:53:27.479Z,97507.45
2023-03-26T13:57:41.468Z,97511.45
2023-03-26T13:59:41.942Z,97516.17
2023-03-26T14:01:41.440Z,97506.88
2023-03-26T14:02:40.907Z,97505.95
2023-03-26T14:03:46.610Z,97507.12
2023-03-26T14:04:46.558Z,97509.7
2023-03-26T14:05:44.964Z,97508.35
2023-03-26T14:06:52.473Z,97507.81
2023-03-26T14:07:47.521Z,97508.44
2023-03-26T14:08:48.544Z,97508.45
2023-03-26T14:10:49.084Z,97500.31
2023-03-26T14:15:57.713Z,97496.68
2023-03-26T14:16:57.733Z,97498.02
2023-03-26T14:18:01.313Z,97498.27
2023-03-26T14:26:26.216Z,97490.48
2023-03-26T14:35:52.356Z,97489.54
2023-03-26T14:41:01.873Z,97488.66
2023-03-26T14:42:02.652Z,97482.86
2023-03-26T14:54:20.522Z,97460.86
2023-03-26T15:17:34.539Z,97457.17
2023-03-26T15:27:57.197Z,97451.08
2023-03-26T15:41:39.338Z,97458.34
2023-03-26T15:45:47.570Z,97465.95
2023-03-26T15:46:54.351Z,97459.12
2023-03-26T15:49:58.711Z,97453.86
2023-03-26T15:58:18.807Z,97449.02
2023-03-26T16:00:24.353Z,97444.83
2023-03-26T16:02:35.967Z,97432.48
2023-03-26T16:03:32.917Z,97430.06
2023-03-26T16:11:57.624Z,97419.34
2023-03-26T16:17:00.202Z,97409.07
2023-03-26T16:22:11.621Z,97412.12
2023-03-26T16:24:19.233Z,97409.42
2023-03-26T16:29:23.485Z,97414.12
2023-03-26T16:32:34.332Z,97418.88
2023-03-26T16:33:37.653Z,97418.73
2023-03-26T16:34:38.317Z,97416.61
2023-03-26T16:36:36.987Z,97422.58
2023-03-26T16:37:40.370Z,97422.23
2023-03-26T16:39:42.461Z,97423.16
2023-03-26T16:42:06.430Z,97427.87
2023-03-26T16:48:01.818Z,97418.39
2023-03-26T16:55:21.511Z,97430.67
2023-03-26T16:57:25.376Z,97434.94
2023-03-26T17:01:35.427Z,97434.36
2023-03-26T17:02:31.759Z,97433.42
2023-03-26T17:04:32.353Z,97434.5
2023-03-26T17:05:36.553Z,97439.53
2023-03-26T17:07:44.861Z,97436.2
2023-03-26T17:09:51.328Z,97435.02
2023-03-26T17:25:32.018Z,97436.3
2023-03-26T17:26:34.632Z,97431.12
2023-03-26T17:31:45.912Z,97428.34
2023-03-26T17:32:55.000Z,97428.06
2023-03-26T17:33:46.998Z,97427.39
2023-03-26T17:34:59.642Z,97423.91
2023-03-26T17:35:52.469Z,97427.46
2023-03-26T17:36:58.272Z,97424.7
2023-03-26T17:37:55.133Z,97426.95
2023-03-26T17:38:59.331Z,97421.83
2023-03-26T17:40:59.619Z,97424.92
2023-03-26T17:43:09.073Z,97424.7
2023-03-26T17:49:21.730Z,97413.97
2023-03-26T17:55:23.008Z,97414.31
2023-03-26T17:56:24.428Z,97417.04
2023-03-26T17:58:34.638Z,97411.57
2023-03-26T17:59:27.338Z,97413.37
2023-03-26T18:02:34.564Z,97410.3
2023-03-26T18:03:34.561Z,97413.41
2023-03-26T18:04:36.287Z,97409.3
2023-03-26T18:05:33.491Z,97407.75
2023-03-26T18:17:01.606Z,97394.31
2023-03-26T18:21:13.038Z,97388.32
2023-03-26T18:22:16.119Z,97390.81
2023-03-26T18:23:20.194Z,97388.32
2023-03-26T18:28:34.678Z,97382.8
2023-03-26T18:29:32.368Z,97383.09
2023-03-26T18:30:31.161Z,97384.34
2023-03-26T18:31:31.304Z,97384.25
2023-03-26T18:32:31.708Z,97381.71
2023-03-26T18:33:40.763Z,97381.3
2023-03-26T18:34:33.220Z,97383
2023-03-26T18:36:36.192Z,97381.78
2023-03-26T18:37:36.368Z,97384.92
2023-03-26T18:38:38.526Z,97383.89
2023-03-26T18:39:39.670Z,97382.27
2023-03-26T18:40:43.290Z,97381.05
2023-03-26T18:41:40.354Z,97379.47
2023-03-26T18:42:40.154Z,97379.27
2023-03-26T18:43:44.614Z,97379.89
2023-03-26T18:44:41.152Z,97374.41
2023-03-26T18:45:41.276Z,97372.7
2023-03-26T18:46:41.804Z,97370.58
2023-03-26T18:47:41.158Z,97376.02
2023-03-26T18:48:41.608Z,97371.17
2023-03-26T18:49:45.581Z,97372.92
2023-03-26T18:50:41.909Z,97368.48
2023-03-26T18:51:54.090Z,97369.92
2023-03-26T18:52:44.166Z,97369.08
2023-03-26T18:53:47.666Z,97371.11
2023-03-26T18:54:47.958Z,97368.34
2023-03-26T18:55:44.648Z,97371.41
2023-03-26T18:56:46.943Z,97369.94
2023-03-26T18:57:44.642Z,97365.59
2023-03-26T18:58:49.427Z,97372.55
2023-03-26T18:59:48.417Z,97364.64
2023-03-26T19:00:46.293Z,97365.94
2023-03-26T19:01:47.622Z,97365.3
2023-03-26T19:02:50.632Z,97368.16
2023-03-26T19:03:47.907Z,97365.68
2023-03-26T19:04:48.536Z,97363.94
2023-03-26T19:05:48.014Z,97362.86
2023-03-26T19:06:47.723Z,97363.59
2023-03-26T19:07:47.716Z,97363.83
2023-03-26T19:08:47.740Z,97365.84
2023-03-26T19:09:48.004Z,97364.59
2023-03-26T19:10:47.662Z,97363.58
2023-03-26T19:11:48.881Z,97368.09
2023-03-26T19:12:54.643Z,97364.52
2023-03-26T19:14:01.211Z,97360.79
2023-03-26T19:15:04.262Z,97365.07
2023-03-26T19:15:56.114Z,97358.84
2023-03-26T19:16:59.477Z,97361.91
2023-03-26T19:17:58.181Z,97356.9
2023-03-26T19:18:58.497Z,97357.65
2023-03-26T19:19:57.427Z,97356.84
2023-03-26T19:21:00.393Z,97356.64
2023-03-26T19:21:59.143Z,97356.23
2023-03-26T19:22:57.485Z,97353.38
2023-03-26T19:23:57.274Z,97354.25
2023-03-26T19:24:59.554Z,97351.92
2023-03-26T19:25:58.114Z,97348.99
2023-03-26T19:26:57.835Z,97348.17
2023-03-26T19:27:57.195Z,97352.98
2023-03-26T19:28:57.745Z,97348.94
2023-03-26T19:29:57.336Z,97353.7
2023-03-26T19:30:59.060Z,97354.39
2023-03-26T19:33:15.391Z,97356.52
2023-03-26T19:34:03.577Z,97354.2
2023-03-26T19:35:02.169Z,97353.19
2023-03-26T19:36:15.594Z,97351.19
2023-03-26T19:37:03.925Z,97350.89
2023-03-26T19:38:12.096Z,97349.5
2023-03-26T19:39:10.737Z,97346.75
2023-03-26T19:40:18.648Z,97350.66
2023-03-26T19:41:21.234Z,97345.97
2023-03-26T19:42:19.828Z,97347.63
2023-03-26T19:43:17.064Z,97346.5